sensor_id;sensor_type;location;lat;lon;timestamp;P1;durP1;ratioP1;P2;durP2;ratioP2
43650;SDS011;29247;50.944;5.382;2023-08-07T00:00:58;7.82;;;1.35;;
43650;SDS011;29247;50.944;5.382;2023-08-07T00:03:23;4.25;;;1.55;;
43650;SDS011;29247;50.944;5.382;2023-08-07T00:05:49;4.38;;;1.42;;
43650;SDS011;29247;50.944;5.382;2023-08-07T00:08:16;9.23;;;1.75;;
43650;SDS011;29247;50.944;5.382;2023-08-07T00:10:42;6.88;;;1.60;;
43650;SDS011;29247;50.944;5.382;2023-08-07T00:13:08;5.78;;;1.63;;
43650;SDS011;29247;50.944;5.382;2023-08-07T00:15:33;6.47;;;1.50;;
43650;SDS011;29247;50.944;5.382;2023-08-07T00:17:59;4.20;;;1.42;;
43650;SDS011;29247;50.944;5.382;2023-08-07T00:20:28;5.35;;;1.50;;
43650;SDS011;29247;50.944;5.382;2023-08-07T00:22:53;5.05;;;1.70;;
43650;SDS011;29247;50.944;5.382;2023-08-07T00:25:21;4.50;;;1.70;;
43650;SDS011;29247;50.944;5.382;2023-08-07T00:27:49;7.47;;;1.50;;
43650;SDS011;29247;50.944;5.382;2023-08-07T00:30:15;11.23;;;2.25;;
43650;SDS011;29247;50.944;5.382;2023-08-07T00:32:41;2.70;;;1.13;;
43650;SDS011;29247;50.944;5.382;2023-08-07T00:35:09;5.00;;;1.55;;
43650;SDS011;29247;50.944;5.382;2023-08-07T00:37:35;4.35;;;1.50;;
43650;SDS011;29247;50.944;5.382;2023-08-07T00:40:03;7.05;;;1.50;;
43650;SDS011;29247;50.944;5.382;2023-08-07T00:42:29;6.35;;;1.60;;
43650;SDS011;29247;50.944;5.382;2023-08-07T00:44:54;5.13;;;1.17;;
43650;SDS011;29247;50.944;5.382;2023-08-07T00:47:20;5.07;;;1.35;;
43650;SDS011;29247;50.944;5.382;2023-08-07T00:49:48;11.57;;;1.65;;
43650;SDS011;29247;50.944;5.382;2023-08-07T00:52:13;4.78;;;1.30;;
43650;SDS011;29247;50.944;5.382;2023-08-07T00:54:39;5.35;;;1.60;;
43650;SDS011;29247;50.944;5.382;2023-08-07T00:57:12;4.13;;;1.67;;
43650;SDS011;29247;50.944;5.382;2023-08-07T00:59:40;2.63;;;1.30;;
43650;SDS011;29247;50.944;5.382;2023-08-07T01:02:07;11.13;;;2.22;;
43650;SDS011;29247;50.944;5.382;2023-08-07T01:04:33;10.02;;;1.40;;
43650;SDS011;29247;50.944;5.382;2023-08-07T01:07:01;6.50;;;1.50;;
43650;SDS011;29247;50.944;5.382;2023-08-07T01:09:29;6.00;;;1.60;;
43650;SDS011;29247;50.944;5.382;2023-08-07T01:14:28;6.20;;;1.35;;
43650;SDS011;29247;50.944;5.382;2023-08-07T01:17:02;3.55;;;2.10;;
43650;SDS011;29247;50.944;5.382;2023-08-07T01:19:30;7.75;;;1.58;;
43650;SDS011;29247;50.944;5.382;2023-08-07T01:22:08;7.55;;;2.50;;
43650;SDS011;29247;50.944;5.382;2023-08-07T01:24:37;5.03;;;1.80;;
43650;SDS011;29247;50.944;5.382;2023-08-07T01:27:10;7.93;;;2.13;;
43650;SDS011;29247;50.944;5.382;2023-08-07T01:29:54;3.40;;;1.40;;
43650;SDS011;29247;50.944;5.382;2023-08-07T01:35:11;5.07;;;1.30;;
43650;SDS011;29247;50.944;5.382;2023-08-07T01:37:41;5.03;;;1.90;;
43650;SDS011;29247;50.944;5.382;2023-08-07T01:40:09;6.65;;;1.45;;
43650;SDS011;29247;50.944;5.382;2023-08-07T01:42:38;4.00;;;1.60;;
43650;SDS011;29247;50.944;5.382;2023-08-07T01:45:09;2.60;;;1.05;;
43650;SDS011;29247;50.944;5.382;2023-08-07T01:47:37;5.70;;;1.30;;
43650;SDS011;29247;50.944;5.382;2023-08-07T01:50:05;4.28;;;1.48;;
43650;SDS011;29247;50.944;5.382;2023-08-07T01:52:31;3.30;;;1.50;;
43650;SDS011;29247;50.944;5.382;2023-08-07T01:55:01;5.53;;;1.33;;
43650;SDS011;29247;50.944;5.382;2023-08-07T01:57:29;6.07;;;1.50;;
43650;SDS011;29247;50.944;5.382;2023-08-07T01:59:56;4.47;;;1.10;;
43650;SDS011;29247;50.944;5.382;2023-08-07T02:02:26;2.47;;;1.55;;
43650;SDS011;29247;50.944;5.382;2023-08-07T02:04:56;3.30;;;1.30;;
43650;SDS011;29247;50.944;5.382;2023-08-07T02:07:22;9.30;;;1.40;;
43650;SDS011;29247;50.944;5.382;2023-08-07T02:09:50;5.53;;;1.58;;
43650;SDS011;29247;50.944;5.382;2023-08-07T02:12:15;7.90;;;1.45;;
43650;SDS011;29247;50.944;5.382;2023-08-07T02:14:41;7.97;;;1.73;;
43650;SDS011;29247;50.944;5.382;2023-08-07T02:17:09;9.18;;;1.50;;
43650;SDS011;29247;50.944;5.382;2023-08-07T02:19:34;6.65;;;1.70;;
43650;SDS011;29247;50.944;5.382;2023-08-07T02:22:01;5.30;;;1.73;;
43650;SDS011;29247;50.944;5.382;2023-08-07T02:24:26;3.85;;;1.38;;
43650;SDS011;29247;50.944;5.382;2023-08-07T02:26:52;4.35;;;1.35;;
43650;SDS011;29247;50.944;5.382;2023-08-07T02:29:18;4.10;;;1.50;;
43650;SDS011;29247;50.944;5.382;2023-08-07T02:31:45;5.40;;;1.25;;
43650;SDS011;29247;50.944;5.382;2023-08-07T02:34:11;4.35;;;1.60;;
43650;SDS011;29247;50.944;5.382;2023-08-07T02:36:37;3.92;;;1.73;;
43650;SDS011;29247;50.944;5.382;2023-08-07T02:39:07;4.68;;;1.80;;
43650;SDS011;29247;50.944;5.382;2023-08-07T02:41:33;3.75;;;1.45;;
43650;SDS011;29247;50.944;5.382;2023-08-07T02:43:59;4.30;;;1.40;;
43650;SDS011;29247;50.944;5.382;2023-08-07T02:46:24;3.28;;;1.42;;
43650;SDS011;29247;50.944;5.382;2023-08-07T02:48:52;3.75;;;1.38;;
43650;SDS011;29247;50.944;5.382;2023-08-07T02:51:21;4.75;;;1.67;;
43650;SDS011;29247;50.944;5.382;2023-08-07T02:53:47;6.20;;;1.40;;
43650;SDS011;29247;50.944;5.382;2023-08-07T02:56:14;5.05;;;1.38;;
43650;SDS011;29247;50.944;5.382;2023-08-07T02:58:40;3.83;;;1.15;;
43650;SDS011;29247;50.944;5.382;2023-08-07T03:01:08;6.65;;;1.40;;
43650;SDS011;29247;50.944;5.382;2023-08-07T03:03:34;5.28;;;1.38;;
43650;SDS011;29247;50.944;5.382;2023-08-07T03:06:02;4.45;;;1.35;;
43650;SDS011;29247;50.944;5.382;2023-08-07T03:08:28;2.72;;;1.40;;
43650;SDS011;29247;50.944;5.382;2023-08-07T03:10:57;6.85;;;1.35;;
43650;SDS011;29247;50.944;5.382;2023-08-07T03:13:25;4.07;;;1.58;;
43650;SDS011;29247;50.944;5.382;2023-08-07T03:16:01;4.60;;;1.55;;
43650;SDS011;29247;50.944;5.382;2023-08-07T03:18:31;3.50;;;1.60;;
43650;SDS011;29247;50.944;5.382;2023-08-07T03:21:01;4.47;;;1.35;;
43650;SDS011;29247;50.944;5.382;2023-08-07T03:23:27;2.92;;;1.20;;
43650;SDS011;29247;50.944;5.382;2023-08-07T03:26:05;4.38;;;1.42;;
43650;SDS011;29247;50.944;5.382;2023-08-07T03:28:35;3.13;;;1.30;;
43650;SDS011;29247;50.944;5.382;2023-08-07T03:31:02;3.45;;;1.63;;
43650;SDS011;29247;50.944;5.382;2023-08-07T03:33:28;4.78;;;1.60;;
43650;SDS011;29247;50.944;5.382;2023-08-07T03:35:54;3.20;;;1.40;;
43650;SDS011;29247;50.944;5.382;2023-08-07T03:38:19;2.45;;;1.23;;
43650;SDS011;29247;50.944;5.382;2023-08-07T03:40:45;5.13;;;1.35;;
43650;SDS011;29247;50.944;5.382;2023-08-07T03:43:13;4.50;;;1.15;;
43650;SDS011;29247;50.944;5.382;2023-08-07T03:45:41;6.63;;;1.05;;
43650;SDS011;29247;50.944;5.382;2023-08-07T03:48:06;4.50;;;1.27;;
43650;SDS011;29247;50.944;5.382;2023-08-07T03:50:35;4.32;;;1.65;;
43650;SDS011;29247;50.944;5.382;2023-08-07T03:53:02;3.20;;;1.27;;
43650;SDS011;29247;50.944;5.382;2023-08-07T03:55:32;5.03;;;1.38;;
43650;SDS011;29247;50.944;5.382;2023-08-07T03:58:00;4.75;;;1.20;;
43650;SDS011;29247;50.944;5.382;2023-08-07T04:00:25;5.15;;;1.55;;
43650;SDS011;29247;50.944;5.382;2023-08-07T04:02:51;3.20;;;1.20;;
43650;SDS011;29247;50.944;5.382;2023-08-07T04:05:17;6.90;;;1.23;;
43650;SDS011;29247;50.944;5.382;2023-08-07T04:07:42;5.30;;;1.02;;
43650;SDS011;29247;50.944;5.382;2023-08-07T04:10:08;3.45;;;1.20;;
43650;SDS011;29247;50.944;5.382;2023-08-07T04:12:34;2.03;;;1.25;;
43650;SDS011;29247;50.944;5.382;2023-08-07T04:14:59;5.82;;;1.40;;
43650;SDS011;29247;50.944;5.382;2023-08-07T04:17:25;4.25;;;1.15;;
43650;SDS011;29247;50.944;5.382;2023-08-07T04:19:53;5.38;;;1.30;;
43650;SDS011;29247;50.944;5.382;2023-08-07T04:22:38;8.95;;;1.48;;
43650;SDS011;29247;50.944;5.382;2023-08-07T04:25:12;4.47;;;1.13;;
43650;SDS011;29247;50.944;5.382;2023-08-07T04:27:38;7.38;;;1.65;;
43650;SDS011;29247;50.944;5.382;2023-08-07T04:30:04;3.05;;;1.30;;
43650;SDS011;29247;50.944;5.382;2023-08-07T04:32:33;4.07;;;1.00;;
43650;SDS011;29247;50.944;5.382;2023-08-07T16:46:19;1.30;;;1.00;;
43650;SDS011;29247;50.944;5.382;2023-08-07T16:48:47;1.38;;;0.82;;
43650;SDS011;29247;50.944;5.382;2023-08-07T16:51:13;3.45;;;0.95;;
43650;SDS011;29247;50.944;5.382;2023-08-07T16:53:39;0.85;;;0.70;;
43650;SDS011;29247;50.944;5.382;2023-08-07T16:56:07;2.17;;;1.40;;
43650;SDS011;29247;50.944;5.382;2023-08-07T16:58:33;1.67;;;0.68;;
43650;SDS011;29247;50.944;5.382;2023-08-07T17:01:01;1.10;;;0.60;;
43650;SDS011;29247;50.944;5.382;2023-08-07T17:03:27;1.17;;;0.90;;
43650;SDS011;29247;50.944;5.382;2023-08-07T17:05:57;1.05;;;0.80;;
43650;SDS011;29247;50.944;5.382;2023-08-07T17:08:23;2.00;;;0.80;;
43650;SDS011;29247;50.944;5.382;2023-08-07T17:10:51;1.73;;;0.73;;
43650;SDS011;29247;50.944;5.382;2023-08-07T17:13:19;1.30;;;0.70;;
43650;SDS011;29247;50.944;5.382;2023-08-07T17:15:44;1.27;;;0.80;;
43650;SDS011;29247;50.944;5.382;2023-08-07T17:18:11;0.90;;;0.75;;
43650;SDS011;29247;50.944;5.382;2023-08-07T17:20:39;1.75;;;0.88;;
43650;SDS011;29247;50.944;5.382;2023-08-07T17:23:05;1.15;;;0.52;;
43650;SDS011;29247;50.944;5.382;2023-08-07T17:25:33;0.70;;;0.70;;
43650;SDS011;29247;50.944;5.382;2023-08-07T17:27:58;3.97;;;0.77;;
43650;SDS011;29247;50.944;5.382;2023-08-07T17:30:26;1.83;;;0.90;;
43650;SDS011;29247;50.944;5.382;2023-08-07T17:32:52;1.52;;;0.80;;
43650;SDS011;29247;50.944;5.382;2023-08-07T17:35:18;1.55;;;0.90;;
43650;SDS011;29247;50.944;5.382;2023-08-07T17:37:46;1.25;;;0.80;;
43650;SDS011;29247;50.944;5.382;2023-08-07T17:40:12;2.80;;;0.70;;
43650;SDS011;29247;50.944;5.382;2023-08-07T17:42:38;0.95;;;0.90;;
43650;SDS011;29247;50.944;5.382;2023-08-07T17:45:04;1.38;;;0.80;;
43650;SDS011;29247;50.944;5.382;2023-08-07T17:47:30;5.22;;;1.10;;
43650;SDS011;29247;50.944;5.382;2023-08-07T17:49:56;1.67;;;0.90;;
43650;SDS011;29247;50.944;5.382;2023-08-07T17:52:21;3.28;;;0.98;;
43650;SDS011;29247;50.944;5.382;2023-08-07T17:54:50;0.82;;;0.70;;
43650;SDS011;29247;50.944;5.382;2023-08-07T17:57:16;0.65;;;0.60;;
43650;SDS011;29247;50.944;5.382;2023-08-07T17:59:42;3.65;;;0.80;;
43650;SDS011;29247;50.944;5.382;2023-08-07T18:02:10;1.80;;;0.82;;
43650;SDS011;29247;50.944;5.382;2023-08-07T18:04:35;1.95;;;0.88;;
43650;SDS011;29247;50.944;5.382;2023-08-07T18:07:09;0.70;;;0.70;;
43650;SDS011;29247;50.944;5.382;2023-08-07T18:09:35;0.77;;;0.77;;
43650;SDS011;29247;50.944;5.382;2023-08-07T18:12:01;2.65;;;0.65;;
43650;SDS011;29247;50.944;5.382;2023-08-07T18:14:29;1.88;;;0.73;;
43650;SDS011;29247;50.944;5.382;2023-08-07T18:16:55;2.42;;;0.90;;
43650;SDS011;29247;50.944;5.382;2023-08-07T18:19:23;3.03;;;1.00;;
43650;SDS011;29247;50.944;5.382;2023-08-07T18:21:51;1.65;;;1.00;;
43650;SDS011;29247;50.944;5.382;2023-08-07T18:24:19;0.80;;;0.80;;
43650;SDS011;29247;50.944;5.382;2023-08-07T18:29:13;3.88;;;0.93;;
43650;SDS011;29247;50.944;5.382;2023-08-07T18:31:41;2.85;;;0.80;;
43650;SDS011;29247;50.944;5.382;2023-08-07T18:34:07;1.20;;;0.70;;
43650;SDS011;29247;50.944;5.382;2023-08-07T18:36:36;0.60;;;0.60;;
43650;SDS011;29247;50.944;5.382;2023-08-07T18:39:05;0.75;;;0.73;;
43650;SDS011;29247;50.944;5.382;2023-08-07T18:41:34;1.95;;;1.00;;
43650;SDS011;29247;50.944;5.382;2023-08-07T18:44:04;0.70;;;0.70;;
43650;SDS011;29247;50.944;5.382;2023-08-07T18:46:32;1.15;;;0.90;;
43650;SDS011;29247;50.944;5.382;2023-08-07T18:48:58;2.13;;;0.80;;
43650;SDS011;29247;50.944;5.382;2023-08-07T18:51:24;0.80;;;0.80;;
43650;SDS011;29247;50.944;5.382;2023-08-07T18:53:49;2.22;;;0.85;;
43650;SDS011;29247;50.944;5.382;2023-08-07T18:56:18;2.15;;;0.70;;
43650;SDS011;29247;50.944;5.382;2023-08-07T18:58:46;1.90;;;0.80;;
43650;SDS011;29247;50.944;5.382;2023-08-07T19:01:11;0.82;;;0.82;;
43650;SDS011;29247;50.944;5.382;2023-08-07T19:03:42;1.08;;;0.80;;
43650;SDS011;29247;50.944;5.382;2023-08-07T19:06:14;2.03;;;0.80;;
43650;SDS011;29247;50.944;5.382;2023-08-07T19:08:40;3.10;;;0.80;;
43650;SDS011;29247;50.944;5.382;2023-08-07T19:11:06;1.52;;;0.90;;
43650;SDS011;29247;50.944;5.382;2023-08-07T19:13:32;3.63;;;1.13;;
43650;SDS011;29247;50.944;5.382;2023-08-07T19:15:57;1.70;;;0.70;;
43650;SDS011;29247;50.944;5.382;2023-08-07T19:18:25;2.67;;;0.90;;
43650;SDS011;29247;50.944;5.382;2023-08-07T19:20:51;1.10;;;0.90;;
43650;SDS011;29247;50.944;5.382;2023-08-07T19:23:17;3.15;;;0.90;;
43650;SDS011;29247;50.944;5.382;2023-08-07T19:25:45;3.67;;;0.90;;
43650;SDS011;29247;50.944;5.382;2023-08-07T19:28:11;2.10;;;1.00;;
43650;SDS011;29247;50.944;5.382;2023-08-07T19:30:37;2.97;;;0.90;;
43650;SDS011;29247;50.944;5.382;2023-08-07T19:33:04;0.90;;;0.90;;
43650;SDS011;29247;50.944;5.382;2023-08-07T19:35:30;1.45;;;0.85;;
43650;SDS011;29247;50.944;5.382;2023-08-07T19:37:59;3.83;;;0.73;;
43650;SDS011;29247;50.944;5.382;2023-08-07T19:40:29;1.40;;;0.90;;
43650;SDS011;29247;50.944;5.382;2023-08-07T19:42:55;2.55;;;0.80;;
43650;SDS011;29247;50.944;5.382;2023-08-07T19:45:23;3.25;;;1.02;;
43650;SDS011;29247;50.944;5.382;2023-08-07T19:47:52;2.85;;;0.85;;
43650;SDS011;29247;50.944;5.382;2023-08-07T19:52:45;1.17;;;0.60;;
43650;SDS011;29247;50.944;5.382;2023-08-07T19:55:13;2.42;;;0.82;;
43650;SDS011;29247;50.944;5.382;2023-08-07T19:57:40;2.05;;;0.85;;
43650;SDS011;29247;50.944;5.382;2023-08-07T20:00:06;1.42;;;0.98;;
43650;SDS011;29247;50.944;5.382;2023-08-07T20:02:35;5.53;;;1.00;;
43650;SDS011;29247;50.944;5.382;2023-08-07T20:05:01;2.83;;;1.00;;
43650;SDS011;29247;50.944;5.382;2023-08-07T20:07:28;4.78;;;0.93;;
43650;SDS011;29247;50.944;5.382;2023-08-07T20:09:54;3.92;;;1.10;;
43650;SDS011;29247;50.944;5.382;2023-08-07T20:12:20;1.20;;;1.10;;
43650;SDS011;29247;50.944;5.382;2023-08-07T20:14:48;5.35;;;2.33;;
43650;SDS011;29247;50.944;5.382;2023-08-07T20:19:42;5.65;;;2.58;;
43650;SDS011;29247;50.944;5.382;2023-08-07T20:22:11;4.05;;;2.13;;
43650;SDS011;29247;50.944;5.382;2023-08-07T20:24:37;2.08;;;1.42;;
43650;SDS011;29247;50.944;5.382;2023-08-07T20:27:05;1.52;;;1.30;;
43650;SDS011;29247;50.944;5.382;2023-08-07T20:29:31;3.63;;;1.98;;
43650;SDS011;29247;50.944;5.382;2023-08-07T20:31:59;2.33;;;1.92;;
43650;SDS011;29247;50.944;5.382;2023-08-07T20:34:26;3.63;;;2.60;;
43650;SDS011;29247;50.944;5.382;2023-08-07T20:36:52;4.47;;;2.65;;
43650;SDS011;29247;50.944;5.382;2023-08-07T20:39:17;3.95;;;2.13;;
43650;SDS011;29247;50.944;5.382;2023-08-07T20:41:45;6.95;;;3.25;;
43650;SDS011;29247;50.944;5.382;2023-08-07T20:44:15;11.70;;;5.30;;
43650;SDS011;29247;50.944;5.382;2023-08-07T20:46:45;6.97;;;2.95;;
43650;SDS011;29247;50.944;5.382;2023-08-07T20:49:11;3.13;;;2.22;;
43650;SDS011;29247;50.944;5.382;2023-08-07T20:51:37;4.20;;;2.13;;
43650;SDS011;29247;50.944;5.382;2023-08-07T20:54:02;3.33;;;2.58;;
43650;SDS011;29247;50.944;5.382;2023-08-07T20:56:28;4.57;;;2.40;;
43650;SDS011;29247;50.944;5.382;2023-08-07T20:58:54;4.03;;;1.88;;
43650;SDS011;29247;50.944;5.382;2023-08-07T21:01:19;3.38;;;2.50;;
43650;SDS011;29247;50.944;5.382;2023-08-07T21:03:45;4.85;;;2.95;;
43650;SDS011;29247;50.944;5.382;2023-08-07T21:06:11;2.53;;;2.05;;
43650;SDS011;29247;50.944;5.382;2023-08-07T21:08:39;3.28;;;2.13;;
43650;SDS011;29247;50.944;5.382;2023-08-07T21:11:07;6.95;;;3.70;;
43650;SDS011;29247;50.944;5.382;2023-08-07T21:13:33;11.73;;;4.05;;
43650;SDS011;29247;50.944;5.382;2023-08-07T21:16:02;4.28;;;3.40;;
43650;SDS011;29247;50.944;5.382;2023-08-07T21:18:28;8.07;;;4.75;;
43650;SDS011;29247;50.944;5.382;2023-08-07T21:20:54;5.70;;;2.58;;
43650;SDS011;29247;50.944;5.382;2023-08-07T21:23:20;5.15;;;2.55;;
43650;SDS011;29247;50.944;5.382;2023-08-07T21:25:45;8.88;;;4.43;;
43650;SDS011;29247;50.944;5.382;2023-08-07T21:28:13;8.50;;;4.13;;
43650;SDS011;29247;50.944;5.382;2023-08-07T21:30:39;5.47;;;3.15;;
43650;SDS011;29247;50.944;5.382;2023-08-07T21:33:05;10.10;;;4.03;;
43650;SDS011;29247;50.944;5.382;2023-08-07T21:35:30;6.18;;;3.60;;
43650;SDS011;29247;50.944;5.382;2023-08-07T21:37:58;6.85;;;2.80;;
43650;SDS011;29247;50.944;5.382;2023-08-07T21:40:24;5.90;;;3.25;;
43650;SDS011;29247;50.944;5.382;2023-08-07T21:42:52;3.65;;;2.35;;
43650;SDS011;29247;50.944;5.382;2023-08-07T21:45:18;7.13;;;3.00;;
43650;SDS011;29247;50.944;5.382;2023-08-07T21:47:46;4.68;;;2.65;;
43650;SDS011;29247;50.944;5.382;2023-08-07T21:50:11;7.50;;;2.53;;
43650;SDS011;29247;50.944;5.382;2023-08-07T21:52:39;4.15;;;2.33;;
43650;SDS011;29247;50.944;5.382;2023-08-07T21:55:07;4.85;;;2.13;;
43650;SDS011;29247;50.944;5.382;2023-08-07T21:57:35;6.28;;;2.10;;
43650;SDS011;29247;50.944;5.382;2023-08-07T22:00:04;8.45;;;4.57;;
43650;SDS011;29247;50.944;5.382;2023-08-07T22:02:39;4.70;;;2.15;;
43650;SDS011;29247;50.944;5.382;2023-08-07T22:05:08;5.85;;;2.92;;
43650;SDS011;29247;50.944;5.382;2023-08-07T22:07:35;6.88;;;3.58;;
43650;SDS011;29247;50.944;5.382;2023-08-07T22:10:08;10.15;;;5.95;;
43650;SDS011;29247;50.944;5.382;2023-08-07T22:12:38;6.57;;;3.67;;
43650;SDS011;29247;50.944;5.382;2023-08-07T22:15:03;3.95;;;3.00;;
43650;SDS011;29247;50.944;5.382;2023-08-07T22:17:30;6.55;;;3.22;;
43650;SDS011;29247;50.944;5.382;2023-08-07T22:19:55;3.35;;;2.00;;
43650;SDS011;29247;50.944;5.382;2023-08-07T22:22:23;2.85;;;1.88;;
43650;SDS011;29247;50.944;5.382;2023-08-07T22:24:51;1.85;;;1.48;;
43650;SDS011;29247;50.944;5.382;2023-08-07T22:27:19;6.07;;;1.80;;
43650;SDS011;29247;50.944;5.382;2023-08-07T22:29:45;3.90;;;1.88;;
43650;SDS011;29247;50.944;5.382;2023-08-07T22:32:13;3.00;;;1.70;;
43650;SDS011;29247;50.944;5.382;2023-08-07T22:34:39;3.95;;;1.80;;
43650;SDS011;29247;50.944;5.382;2023-08-07T22:37:05;2.30;;;1.63;;
43650;SDS011;29247;50.944;5.382;2023-08-07T22:39:30;3.75;;;2.03;;
43650;SDS011;29247;50.944;5.382;2023-08-07T22:41:59;2.03;;;1.77;;
43650;SDS011;29247;50.944;5.382;2023-08-07T22:44:24;1.98;;;1.73;;
43650;SDS011;29247;50.944;5.382;2023-08-07T22:46:50;5.32;;;2.00;;
43650;SDS011;29247;50.944;5.382;2023-08-07T22:49:18;2.72;;;1.52;;
43650;SDS011;29247;50.944;5.382;2023-08-07T22:51:45;1.65;;;1.48;;
43650;SDS011;29247;50.944;5.382;2023-08-07T22:54:11;3.95;;;1.88;;
43650;SDS011;29247;50.944;5.382;2023-08-07T22:56:36;2.83;;;1.77;;
43650;SDS011;29247;50.944;5.382;2023-08-07T22:59:02;4.90;;;1.73;;
43650;SDS011;29247;50.944;5.382;2023-08-07T23:01:28;3.97;;;1.60;;
43650;SDS011;29247;50.944;5.382;2023-08-07T23:03:58;2.42;;;1.38;;
43650;SDS011;29247;50.944;5.382;2023-08-07T23:06:23;2.30;;;1.52;;
43650;SDS011;29247;50.944;5.382;2023-08-07T23:08:49;1.42;;;1.25;;
43650;SDS011;29247;50.944;5.382;2023-08-07T23:11:17;1.75;;;1.23;;
43650;SDS011;29247;50.944;5.382;2023-08-07T23:13:43;1.73;;;1.38;;
43650;SDS011;29247;50.944;5.382;2023-08-07T23:16:08;7.25;;;1.38;;
43650;SDS011;29247;50.944;5.382;2023-08-07T23:18:36;2.33;;;1.67;;
43650;SDS011;29247;50.944;5.382;2023-08-07T23:21:02;5.85;;;1.90;;
43650;SDS011;29247;50.944;5.382;2023-08-07T23:25:58;4.78;;;1.50;;
43650;SDS011;29247;50.944;5.382;2023-08-07T23:28:25;4.28;;;1.55;;
43650;SDS011;29247;50.944;5.382;2023-08-07T23:30:53;2.72;;;1.50;;
43650;SDS011;29247;50.944;5.382;2023-08-07T23:33:21;1.58;;;1.40;;
43650;SDS011;29247;50.944;5.382;2023-08-07T23:35:49;2.10;;;1.90;;
43650;SDS011;29247;50.944;5.382;2023-08-07T23:38:17;2.28;;;1.45;;
43650;SDS011;29247;50.944;5.382;2023-08-07T23:40:43;5.25;;;1.42;;
43650;SDS011;29247;50.944;5.382;2023-08-07T23:43:08;3.33;;;1.40;;
43650;SDS011;29247;50.944;5.382;2023-08-07T23:45:35;2.08;;;1.40;;
43650;SDS011;29247;50.944;5.382;2023-08-07T23:48:03;5.18;;;1.80;;
43650;SDS011;29247;50.944;5.382;2023-08-07T23:50:29;6.05;;;1.50;;
43650;SDS011;29247;50.944;5.382;2023-08-07T23:52:59;1.60;;;1.45;;
43650;SDS011;29247;50.944;5.382;2023-08-07T23:55:25;3.88;;;1.52;;
43650;SDS011;29247;50.944;5.382;2023-08-07T23:57:51;1.98;;;1.45;;
